This is the latest recevied weather packets stored in our database for station/object G4RHR. If no packets are shown the sender has not sent any weather packets the latest 10 day(s).
| Time | Temp. | Humidity | Pressure | Rain* | Wind** | Luminosity | Snow |
|---|---|---|---|---|---|---|---|
| 1777233421 | 8.89° C | 80% | 1024.2 hPa | 0 mm | - | - | - |
| 1777232341 | 9.44° C | 79% | 1024.1 hPa | 0 mm | - | - | - |
| 1777231801 | 9.44° C | 79% | 1024.1 hPa | 0 mm | - | - | - |
| 1777225320 | 11.67° C | 72% | 1023.9 hPa | 0 mm | - | - | - |
| 1777221001 | 13.89° C | 66% | 1024.2 hPa | 0 mm | - | - | - |
| 1777218432 | 14.44° C | 65% | 1024.2 hPa | 0 mm | - | - | - |
| 1777216681 | 14.44° C | 66% | 1024.3 hPa | 0 mm | - | - | - |
| 1777215599 | 14.44° C | 65% | 1024.3 hPa | 0 mm | - | - | - |
| 1777212492 | 15.56° C | 62% | 1024.7 hPa | 0 mm | - | - | - |
| 1777210201 | 15.56° C | 60% | 1024.8 hPa | 0 mm | - | - | - |
| 1777208581 | 15.56° C | 61% | 1024.9 hPa | 0 mm | - | - | - |
| 1777206961 | 16.11° C | 59% | 1025.1 hPa | 0 mm | - | - | - |
| 1777206421 | 16.11° C | 60% | 1025.1 hPa | 0 mm | - | - | - |
| 1777204260 | 15.56° C | 62% | 1025.2 hPa | 0 mm | - | - | - |
| 1777203181 | 16.11° C | 61% | 1025.2 hPa | 0 mm | - | - | - |
| 1777202640 | 15.56° C | 62% | 1025.3 hPa | 0 mm | - | - | - |
| 1777200480 | 15.56° C | 62% | 1025.3 hPa | 0 mm | - | - | - |
| 1777199400 | 15° C | 65% | 1025.5 hPa | 0 mm | - | - | - |
| 1777197911 | 15° C | 65% | 1025.4 hPa | 0 mm | - | - | - |
| 1777196161 | 14.44° C | 65% | 1025.4 hPa | 0 mm | - | - | - |
| 1777195080 | 13.89° C | 67% | 1025.6 hPa | 0 mm | - | - | - |
| 1777194541 | 13.89° C | 67% | 1025.6 hPa | 0 mm | - | - | - |
| 1777184280 | 9.44° C | 86% | 1024.9 hPa | 0 mm | - | - | - |
| 1777181581 | 7.78° C | 92% | 1024.3 hPa | 0 mm | - | - | - |
| 1777174020 | 6.11° C | 93% | 1023.6 hPa | 0 mm | - | - | - |
* Rain latest hour (hover to see other rain measurements)
** Current wind speed in m/s (hover to see current wind gust speed)